Saint Simons Island, Georgia
Current Conditions -  °F | °C
As of 3:53 PM on Saturday 22 Nov 2014 (Local Time) from KSSI Reporting Station
Overcast Overcast  
Wind Chill: 61°   Ceiling: 4100
Heat Index: 61°   Visibility: 10mi
Dew Point: 56°   Wind: 10mph
Humidity: 83%   Direction: 40°NE
Pressure: 30.28"   Gusts: NA
Location:  31.15°N, 81.38°W
Report Text: KSSI 222053Z AUTO 04009KT 10SM OVC041 16/13 A3028 RMK AO2 SLP252 T01610133 56019
Loading
Personal Weather Stations






























Interactive Weather Map New forecast layout! Learn more

10-Day Weather Forecast

Advertisements
Track Severe Weather on mobile